Time;durP1;ratioP1;P1;durP2;ratioP2;P2;SDS_P1;SDS_P2;PMS_P1;PMS_P2;Temp;Humidity;BMP_temperature;BMP_pressure;BME280_temperature;BME280_humidity;BME280_pressure;Samples;Min_cycle;Max_cycle;Signal;HPM_P1;HPM_P2
2021/08/24 00:00:25;;;;;;;1.77;1.40;;;;;;;;;;5028809;28;20171;-56
2021/08/24 00:02:50;;;;;;;1.60;1.50;;;;;;;;;;5025421;28;20186;-56
2021/08/24 00:05:18;;;;;;;3.67;1.90;;;;;;;;;;5029873;28;20177;-57
2021/08/24 00:07:44;;;;;;;3.50;1.90;;;;;;;;;;5029692;28;20586;-56
2021/08/24 00:10:09;;;;;;;2.97;1.80;;;;;;;;;;5025874;28;20191;-55
2021/08/24 00:12:34;;;;;;;1.55;1.45;;;;;;;;;;5028437;28;20488;-57
2021/08/24 00:14:59;;;;;;;4.68;2.03;;;;;;;;;;5025053;28;20207;-56
2021/08/24 00:17:25;;;;;;;2.77;1.50;;;;;;;;;;5023148;28;20194;-55
2021/08/24 00:19:50;;;;;;;2.25;1.55;;;;;;;;;;5029500;28;20635;-55
2021/08/24 00:22:15;;;;;;;2.65;1.70;;;;;;;;;;5029612;28;20199;-55
2021/08/24 00:24:40;;;;;;;1.73;1.58;;;;;;;;;;5026935;28;20626;-56
2021/08/24 00:27:05;;;;;;;1.80;1.30;;;;;;;;;;5031840;28;20189;-55
2021/08/24 00:29:30;;;;;;;2.97;1.40;;;;;;;;;;5032784;28;20179;-56
2021/08/24 00:31:56;;;;;;;1.80;1.50;;;;;;;;;;5028452;28;20244;-55
2021/08/24 00:34:21;;;;;;;3.07;1.73;;;;;;;;;;5033141;28;20217;-55
2021/08/24 00:36:46;;;;;;;2.67;1.63;;;;;;;;;;5032941;28;20175;-56
2021/08/24 00:39:11;;;;;;;1.50;1.40;;;;;;;;;;5032987;28;20171;-56
2021/08/24 00:41:37;;;;;;;2.13;1.57;;;;;;;;;;5030697;28;20258;-56
2021/08/24 00:44:03;;;;;;;2.85;1.60;;;;;;;;;;5032178;28;20256;-56
2021/08/24 00:46:44;;;;;;;2.63;2.00;;;;;;;;;;5032238;28;20631;-56
2021/08/24 00:49:15;;;;;;;2.97;2.00;;;;;;;;;;5032849;28;20250;-57
2021/08/24 00:51:42;;;;;;;2.35;1.80;;;;;;;;;;5033224;28;20213;-57
2021/08/24 00:54:08;;;;;;;3.87;1.80;;;;;;;;;;5031837;28;20248;-56
2021/08/24 00:56:33;;;;;;;4.80;1.73;;;;;;;;;;5031917;28;20548;-56
2021/08/24 00:58:59;;;;;;;2.50;1.67;;;;;;;;;;5021749;28;20181;-55
2021/08/24 01:01:24;;;;;;;3.43;1.57;;;;;;;;;;5031070;28;20217;-56
2021/08/24 01:03:50;;;;;;;2.53;1.80;;;;;;;;;;5029544;28;20203;-56
2021/08/24 01:06:33;;;;;;;2.20;1.70;;;;;;;;;;5032998;28;20193;-56
2021/08/24 01:08:58;;;;;;;3.20;1.60;;;;;;;;;;5032887;28;20178;-56
2021/08/24 01:11:42;;;;;;;2.73;1.43;;;;;;;;;;5026332;28;20233;-57
2021/08/24 01:14:29;;;;;;;1.93;1.50;;;;;;;;;;5030685;28;20210;-56
2021/08/24 01:17:00;;;;;;;2.37;1.60;;;;;;;;;;5031589;28;20264;-55
2021/08/24 01:19:25;;;;;;;4.33;1.57;;;;;;;;;;5032254;28;20166;-55
2021/08/24 01:22:10;;;;;;;3.50;1.50;;;;;;;;;;5032264;28;20179;-56
2021/08/24 01:24:39;;;;;;;2.53;1.50;;;;;;;;;;5032252;28;20202;-55
2021/08/24 01:27:10;;;;;;;3.60;1.83;;;;;;;;;;5020164;28;20190;-56
2021/08/24 01:29:44;;;;;;;3.10;1.57;;;;;;;;;;5032183;28;20611;-55
2021/08/24 01:32:30;;;;;;;2.23;1.37;;;;;;;;;;5027054;28;20192;-56
2021/08/24 01:35:03;;;;;;;4.40;1.77;;;;;;;;;;5010144;28;20214;-56
2021/08/24 01:37:43;;;;;;;2.67;1.70;;;;;;;;;;5013266;28;20648;-55
2021/08/24 01:40:11;;;;;;;2.20;1.70;;;;;;;;;;5014162;28;20201;-56
2021/08/24 01:42:37;;;;;;;2.67;1.83;;;;;;;;;;5026398;28;20187;-55
2021/08/24 01:45:02;;;;;;;1.60;1.47;;;;;;;;;;5030373;28;20214;-56
2021/08/24 01:47:36;;;;;;;1.83;1.47;;;;;;;;;;5030970;28;20237;-54
2021/08/24 01:50:10;;;;;;;2.63;1.70;;;;;;;;;;5031695;28;20567;-56
2021/08/24 01:52:38;;;;;;;2.90;1.60;;;;;;;;;;5031897;28;20182;-55
2021/08/24 01:55:12;;;;;;;2.73;1.83;;;;;;;;;;5029414;28;20187;-55
2021/08/24 01:57:40;;;;;;;2.10;1.50;;;;;;;;;;5030931;28;20191;-57
2021/08/24 02:00:08;;;;;;;2.30;1.80;;;;;;;;;;5030029;28;20178;-55
2021/08/24 02:02:36;;;;;;;2.60;2.13;;;;;;;;;;5026803;28;20182;-56
2021/08/24 02:05:07;;;;;;;3.80;1.93;;;;;;;;;;5031406;28;20199;-57
2021/08/24 02:07:33;;;;;;;3.87;1.80;;;;;;;;;;5031743;28;20224;-56
2021/08/24 02:10:02;;;;;;;3.03;1.70;;;;;;;;;;5031089;28;20195;-56
2021/08/24 02:12:30;;;;;;;2.00;1.70;;;;;;;;;;5029403;28;20647;-55
2021/08/24 02:14:55;;;;;;;2.10;1.83;;;;;;;;;;5029714;28;20191;-56
2021/08/24 02:17:22;;;;;;;4.60;1.90;;;;;;;;;;5030410;28;20183;-56
2021/08/24 02:19:49;;;;;;;3.00;1.77;;;;;;;;;;5030743;28;20203;-55
2021/08/24 02:22:18;;;;;;;2.60;1.70;;;;;;;;;;5031552;28;20189;-56
2021/08/24 02:24:46;;;;;;;2.17;1.70;;;;;;;;;;5030982;28;20281;-56
2021/08/24 02:27:17;;;;;;;2.80;1.70;;;;;;;;;;5025329;28;20278;-56
2021/08/24 02:29:42;;;;;;;2.63;1.80;;;;;;;;;;5026355;28;20870;-55
2021/08/24 02:32:28;;;;;;;1.80;1.60;;;;;;;;;;5028279;28;20203;-55
2021/08/24 02:34:58;;;;;;;2.43;1.90;;;;;;;;;;5025800;28;20191;-56
2021/08/24 02:37:35;;;;;;;2.73;2.10;;;;;;;;;;5009816;28;20184;-56
2021/08/24 02:40:18;;;;;;;2.63;1.90;;;;;;;;;;5011016;28;20636;-56
2021/08/24 02:42:47;;;;;;;3.10;2.03;;;;;;;;;;5028776;28;20175;-56
2021/08/24 02:45:21;;;;;;;3.10;1.83;;;;;;;;;;5028469;28;20186;-54
2021/08/24 02:47:47;;;;;;;5.17;2.47;;;;;;;;;;5029705;28;20191;-55
2021/08/24 02:50:12;;;;;;;2.90;1.90;;;;;;;;;;5030173;28;20208;-56
2021/08/24 02:52:37;;;;;;;3.07;2.10;;;;;;;;;;5030760;28;20646;-56
2021/08/24 02:55:04;;;;;;;2.60;2.00;;;;;;;;;;5030535;28;20248;-56
2021/08/24 02:57:29;;;;;;;4.30;1.77;;;;;;;;;;5029178;28;20186;-55
2021/08/24 02:59:54;;;;;;;4.13;2.30;;;;;;;;;;5027119;28;20197;-56
2021/08/24 03:02:19;;;;;;;2.73;1.93;;;;;;;;;;5029060;28;20179;-56
2021/08/24 03:04:45;;;;;;;1.90;1.63;;;;;;;;;;5009163;28;20230;-57
2021/08/24 03:07:14;;;;;;;1403.50;672.07;;;;;;;;;;5010496;28;20180;-56
2021/08/24 03:09:40;;;;;;;2.20;1.83;;;;;;;;;;5028417;28;20193;-55
2021/08/24 03:12:10;;;;;;;27.53;8.70;;;;;;;;;;5027844;28;20187;-56
2021/08/24 03:14:37;;;;;;;2.93;2.27;;;;;;;;;;5029149;28;20264;-55
2021/08/24 03:17:22;;;;;;;2.60;1.90;;;;;;;;;;5028549;28;20190;-56
2021/08/24 03:19:48;;;;;;;4.97;2.00;;;;;;;;;;5029667;28;20256;-56
2021/08/24 03:22:14;;;;;;;3.27;1.90;;;;;;;;;;5028933;28;20179;-54
2021/08/24 03:24:40;;;;;;;2.77;2.00;;;;;;;;;;5028804;28;20616;-56
2021/08/24 03:27:08;;;;;;;2.57;1.90;;;;;;;;;;5020735;28;20195;-56
2021/08/24 03:29:34;;;;;;;4.90;1.90;;;;;;;;;;5028721;28;20183;-56
2021/08/24 03:31:59;;;;;;;2.97;2.00;;;;;;;;;;5025974;28;20198;-55
2021/08/24 03:34:25;;;;;;;3.07;1.80;;;;;;;;;;5029754;28;20232;-56
2021/08/24 03:36:50;;;;;;;6.07;2.10;;;;;;;;;;5028938;28;20174;-56
2021/08/24 03:39:15;;;;;;;2.00;1.73;;;;;;;;;;5029729;28;20185;-56
2021/08/24 03:41:40;;;;;;;2.73;1.87;;;;;;;;;;5024566;28;20225;-56
2021/08/24 03:44:06;;;;;;;4.67;2.40;;;;;;;;;;5026831;28;20210;-57
2021/08/24 03:46:31;;;;;;;2.50;1.90;;;;;;;;;;5029742;28;20175;-56
2021/08/24 03:48:56;;;;;;;3.00;1.93;;;;;;;;;;5029077;28;20193;-57
2021/08/24 03:51:21;;;;;;;4.50;1.80;;;;;;;;;;5029468;28;20195;-56
2021/08/24 03:53:47;;;;;;;4.47;1.87;;;;;;;;;;5028706;28;20245;-55
2021/08/24 03:56:12;;;;;;;1.97;1.67;;;;;;;;;;5010869;28;20177;-55
2021/08/24 03:58:37;;;;;;;2.47;1.67;;;;;;;;;;5030803;28;20187;-56
2021/08/24 04:01:03;;;;;;;2.53;2.10;;;;;;;;;;5033144;28;20225;-54
2021/08/24 04:03:28;;;;;;;2.20;2.00;;;;;;;;;;5025590;28;20198;-56
2021/08/24 04:05:57;;;;;;;4.30;2.03;;;;;;;;;;5033543;28;20599;-56
2021/08/24 04:08:22;;;;;;;2.40;2.13;;;;;;;;;;5033802;28;20185;-56
2021/08/24 04:10:47;;;;;;;5.30;1.67;;;;;;;;;;5032073;28;20562;-56
2021/08/24 04:13:13;;;;;;;2.90;2.07;;;;;;;;;;5032338;28;20198;-57
2021/08/24 04:15:38;;;;;;;3.33;2.10;;;;;;;;;;5032537;28;20179;-56
2021/08/24 04:18:03;;;;;;;2.83;2.13;;;;;;;;;;5032692;28;20302;-56
2021/08/24 04:20:28;;;;;;;5.43;2.13;;;;;;;;;;5029957;28;20800;-54
2021/08/24 04:22:53;;;;;;;4.00;2.13;;;;;;;;;;5013537;28;20175;-56
2021/08/24 04:25:19;;;;;;;3.80;2.10;;;;;;;;;;5027658;28;20182;-56
2021/08/24 04:27:44;;;;;;;3.40;2.10;;;;;;;;;;5028228;28;20267;-57
2021/08/24 04:30:09;;;;;;;3.30;2.07;;;;;;;;;;5018036;28;20213;-56
2021/08/24 04:32:36;;;;;;;2.77;2.10;;;;;;;;;;5009336;28;20666;-55
2021/08/24 04:35:02;;;;;;;2.43;1.87;;;;;;;;;;5031111;28;20256;-55
2021/08/24 04:37:27;;;;;;;2.33;2.13;;;;;;;;;;5031746;28;20228;-53
2021/08/24 04:39:52;;;;;;;4.10;2.10;;;;;;;;;;5032980;28;20219;-54
2021/08/24 04:42:18;;;;;;;4.00;2.47;;;;;;;;;;5018220;28;20179;-55
2021/08/24 04:44:43;;;;;;;2.23;1.83;;;;;;;;;;5013943;28;20214;-53
2021/08/24 04:47:08;;;;;;;3.20;2.10;;;;;;;;;;5014897;28;20658;-54
2021/08/24 04:49:33;;;;;;;3.10;2.23;;;;;;;;;;5032567;28;20228;-54
2021/08/24 04:51:59;;;;;;;3.30;2.07;;;;;;;;;;5032871;28;20174;-55
2021/08/24 04:54:33;;;;;;;3.17;2.03;;;;;;;;;;5032591;28;20194;-55
2021/08/24 04:56:59;;;;;;;3.43;1.77;;;;;;;;;;5031594;28;20558;-55
2021/08/24 04:59:24;;;;;;;4.30;2.20;;;;;;;;;;5030514;28;20261;-55
2021/08/24 05:01:50;;;;;;;3.13;2.20;;;;;;;;;;5032204;28;20697;-55
2021/08/24 05:04:15;;;;;;;2.47;1.73;;;;;;;;;;5027326;28;20207;-56
2021/08/24 05:06:40;;;;;;;3.17;1.90;;;;;;;;;;5026863;28;20175;-55
2021/08/24 05:09:05;;;;;;;3.93;2.20;;;;;;;;;;5031992;28;20186;-55
2021/08/24 05:11:30;;;;;;;3.27;1.70;;;;;;;;;;5029789;28;20526;-56
2021/08/24 05:13:55;;;;;;;2.97;1.90;;;;;;;;;;5023811;28;20244;-54
2021/08/24 05:16:21;;;;;;;5.30;1.93;;;;;;;;;;5019471;28;20199;-56
2021/08/24 05:18:46;;;;;;;2.70;2.00;;;;;;;;;;5027890;28;20245;-54
2021/08/24 05:21:15;;;;;;;6.77;2.03;;;;;;;;;;5012811;28;20304;-56
2021/08/24 05:23:41;;;;;;;2.40;2.03;;;;;;;;;;5006214;28;20302;-53
2021/08/24 05:26:08;;;;;;;5.63;2.17;;;;;;;;;;5030945;28;20190;-55
2021/08/24 05:28:33;;;;;;;3.27;2.00;;;;;;;;;;5013192;28;20268;-53
2021/08/24 05:30:58;;;;;;;3.17;1.70;;;;;;;;;;5026173;28;20309;-54
2021/08/24 05:33:23;;;;;;;4.60;1.90;;;;;;;;;;5016689;28;20281;-56
2021/08/24 05:35:48;;;;;;;2.50;1.90;;;;;;;;;;5014114;28;20200;-54
2021/08/24 05:38:13;;;;;;;3.63;1.80;;;;;;;;;;5019203;28;20263;-54
2021/08/24 05:40:39;;;;;;;2.70;1.90;;;;;;;;;;5011363;28;20180;-54
2021/08/24 05:43:04;;;;;;;3.67;2.10;;;;;;;;;;5013474;28;20207;-54
2021/08/24 05:45:29;;;;;;;2.67;2.20;;;;;;;;;;5025617;28;20197;-54
2021/08/24 05:47:54;;;;;;;4.43;2.00;;;;;;;;;;5029800;28;20654;-52
2021/08/24 05:50:20;;;;;;;2.90;1.80;;;;;;;;;;5018044;28;20199;-54
2021/08/24 05:52:45;;;;;;;2.90;1.80;;;;;;;;;;5022044;28;20422;-53
2021/08/24 05:55:10;;;;;;;4.53;2.00;;;;;;;;;;5022106;28;20179;-53
2021/08/24 05:57:35;;;;;;;3.22;2.05;;;;;;;;;;5026292;28;20678;-53
2021/08/24 06:00:01;;;;;;;5.60;1.60;;;;;;;;;;5024954;28;20558;-54
2021/08/24 06:02:26;;;;;;;3.17;1.98;;;;;;;;;;5014582;28;20263;-52
2021/08/24 06:04:52;;;;;;;6.28;2.05;;;;;;;;;;5031222;28;20263;-54
2021/08/24 06:07:18;;;;;;;2.95;1.85;;;;;;;;;;5032383;28;20174;-56
2021/08/24 06:09:43;;;;;;;4.45;2.08;;;;;;;;;;5035137;23;20233;-55
2021/08/24 06:12:08;;;;;;;4.78;1.92;;;;;;;;;;5025392;28;20690;-55
2021/08/24 06:14:34;;;;;;;3.30;1.85;;;;;;;;;;5025829;28;20213;-55
2021/08/24 06:16:59;;;;;;;8.10;2.05;;;;;;;;;;5026374;28;20757;-55
2021/08/24 06:19:25;;;;;;;2.60;1.95;;;;;;;;;;5007327;28;20291;-55
2021/08/24 06:21:51;;;;;;;5.53;1.75;;;;;;;;;;5005844;28;20201;-55
2021/08/24 06:24:16;;;;;;;4.20;1.90;;;;;;;;;;4998931;28;20652;-55
2021/08/24 06:26:44;;;;;;;4.43;1.85;;;;;;;;;;4991131;28;20220;-54
2021/08/24 06:29:09;;;;;;;4.30;2.00;;;;;;;;;;5002545;28;20208;-55
2021/08/24 06:31:39;;;;;;;4.15;1.70;;;;;;;;;;4997337;28;20194;-54
2021/08/24 06:34:05;;;;;;;4.63;2.00;;;;;;;;;;5000398;28;20258;-55
2021/08/24 06:36:31;;;;;;;3.13;2.08;;;;;;;;;;5005475;28;20176;-54
2021/08/24 06:38:56;;;;;;;4.28;2.10;;;;;;;;;;5011081;28;20452;-55
2021/08/24 06:41:22;;;;;;;3.47;1.85;;;;;;;;;;5010835;28;20230;-54
2021/08/24 06:43:48;;;;;;;3.25;2.17;;;;;;;;;;5008374;28;20544;-54
2021/08/24 06:46:13;;;;;;;3.17;1.80;;;;;;;;;;5002821;28;20185;-53
2021/08/24 06:48:38;;;;;;;5.70;1.85;;;;;;;;;;5000638;28;20214;-53
2021/08/24 06:51:04;;;;;;;2.72;2.03;;;;;;;;;;5006887;28;20195;-55
2021/08/24 06:53:29;;;;;;;2.53;1.70;;;;;;;;;;4990035;28;20172;-55
2021/08/24 06:55:54;;;;;;;3.40;1.90;;;;;;;;;;5006394;28;20215;-55
2021/08/24 06:58:19;;;;;;;3.42;1.92;;;;;;;;;;5003762;28;20605;-55
2021/08/24 07:00:45;;;;;;;3.80;1.60;;;;;;;;;;5002088;28;20715;-54
2021/08/24 07:03:12;;;;;;;3.35;1.73;;;;;;;;;;5001844;28;20175;-55
2021/08/24 07:05:40;;;;;;;2.55;1.48;;;;;;;;;;5009392;28;20197;-55
2021/08/24 07:08:05;;;;;;;3.50;2.28;;;;;;;;;;5000771;28;20179;-55
2021/08/24 07:10:30;;;;;;;2.72;1.80;;;;;;;;;;5009788;28;20273;-55
2021/08/24 07:12:55;;;;;;;3.38;1.42;;;;;;;;;;5009591;28;20297;-55
2021/08/24 07:15:21;;;;;;;2.55;1.55;;;;;;;;;;5007841;28;21122;-55
2021/08/24 07:17:47;;;;;;;3.25;1.65;;;;;;;;;;5009729;28;20198;-54
2021/08/24 07:20:14;;;;;;;3.80;1.75;;;;;;;;;;5009579;28;20276;-55
2021/08/24 07:22:39;;;;;;;2.80;1.58;;;;;;;;;;5007786;28;20171;-55
2021/08/24 07:25:06;;;;;;;3.03;1.67;;;;;;;;;;5001557;28;20202;-55
2021/08/24 07:27:31;;;;;;;2.55;1.45;;;;;;;;;;5009390;28;20179;-54
2021/08/24 07:29:56;;;;;;;2.28;1.42;;;;;;;;;;5007681;28;20206;-54
2021/08/24 07:32:22;;;;;;;2.85;1.70;;;;;;;;;;5000376;28;20607;-54
2021/08/24 07:34:47;;;;;;;3.70;1.60;;;;;;;;;;5003630;28;20183;-54
2021/08/24 07:37:12;;;;;;;4.28;1.50;;;;;;;;;;5009690;28;20270;-55
2021/08/24 07:39:38;;;;;;;2.70;1.60;;;;;;;;;;5008890;28;20214;-54
2021/08/24 07:42:03;;;;;;;3.45;1.40;;;;;;;;;;5009235;28;20628;-56
2021/08/24 07:44:31;;;;;;;1.67;1.30;;;;;;;;;;5007054;28;20171;-55
2021/08/24 07:46:57;;;;;;;2.33;1.50;;;;;;;;;;5005476;28;20177;-55
2021/08/24 07:49:22;;;;;;;2.05;1.27;;;;;;;;;;5006339;28;20291;-55
2021/08/24 07:51:47;;;;;;;2.33;1.20;;;;;;;;;;5009207;28;20230;-55
2021/08/24 07:54:12;;;;;;;1.67;1.30;;;;;;;;;;5009470;28;20179;-55
2021/08/24 07:56:38;;;;;;;2.33;1.25;;;;;;;;;;5009061;28;20423;-55
2021/08/24 07:59:03;;;;;;;2.38;1.23;;;;;;;;;;5005168;28;20266;-54
2021/08/24 08:01:28;;;;;;;2.35;1.30;;;;;;;;;;5006424;28;20266;-55
2021/08/24 08:03:53;;;;;;;3.40;1.30;;;;;;;;;;5007404;28;20187;-56
2021/08/24 08:06:19;;;;;;;1.98;1.48;;;;;;;;;;5009326;28;20176;-55
2021/08/24 08:08:44;;;;;;;1.95;1.25;;;;;;;;;;5009313;28;20196;-55
2021/08/24 08:11:09;;;;;;;3.30;1.30;;;;;;;;;;5007786;28;20326;-59
2021/08/24 08:13:34;;;;;;;2.30;1.27;;;;;;;;;;5008493;28;21005;-55
2021/08/24 08:16:00;;;;;;;3.00;1.30;;;;;;;;;;5006926;28;20180;-54
2021/08/24 08:18:25;;;;;;;1.88;1.40;;;;;;;;;;5008820;28;20172;-55
2021/08/24 08:20:50;;;;;;;3.78;1.10;;;;;;;;;;5007578;28;20199;-55
2021/08/24 08:23:17;;;;;;;1.75;1.10;;;;;;;;;;5008151;28;20178;-55
2021/08/24 08:25:42;;;;;;;4.20;1.35;;;;;;;;;;5008692;28;20545;-55
2021/08/24 08:28:07;;;;;;;3.13;1.23;;;;;;;;;;5007060;28;20192;-55
2021/08/24 08:30:34;;;;;;;2.15;1.45;;;;;;;;;;5003473;28;20258;-55
2021/08/24 08:33:00;;;;;;;1.45;1.25;;;;;;;;;;5006325;28;20186;-55
2021/08/24 08:35:26;;;;;;;3.60;1.42;;;;;;;;;;5005528;28;20182;-55
2021/08/24 08:37:51;;;;;;;3.45;1.63;;;;;;;;;;5008279;28;20179;-55
2021/08/24 08:40:20;;;;;;;2.13;1.20;;;;;;;;;;5008055;28;20211;-54
2021/08/24 08:42:55;;;;;;;3.85;1.58;;;;;;;;;;5007135;28;20183;-55
2021/08/24 08:45:41;;;;;;;1.75;1.45;;;;;;;;;;5010359;28;20261;-54
2021/08/24 08:48:14;;;;;;;2.25;1.30;;;;;;;;;;5002435;28;20222;-55
2021/08/24 08:50:45;;;;;;;2.47;1.58;;;;;;;;;;5011284;28;20644;-54
2021/08/24 08:53:19;;;;;;;3.72;1.65;;;;;;;;;;5009987;28;20179;-54
2021/08/24 08:55:59;;;;;;;1.98;1.40;;;;;;;;;;5012943;28;20176;-55
2021/08/24 08:58:42;;;;;;;1.90;1.58;;;;;;;;;;5013042;28;20336;-54
2021/08/24 09:01:14;;;;;;;2.33;1.67;;;;;;;;;;5010997;28;20183;-55
2021/08/24 09:03:58;;;;;;;1.67;1.30;;;;;;;;;;5011771;28;20254;-55
2021/08/24 09:06:25;;;;;;;5.93;1.45;;;;;;;;;;5007754;28;20188;-56
2021/08/24 09:08:51;;;;;;;2.70;1.70;;;;;;;;;;5002956;28;20813;-55
2021/08/24 09:11:17;;;;;;;1.50;1.30;;;;;;;;;;5012399;28;20314;-54
2021/08/24 09:13:50;;;;;;;2.33;1.60;;;;;;;;;;4992458;28;20195;-55
2021/08/24 09:16:24;;;;;;;3.42;1.75;;;;;;;;;;5003378;28;20167;-55
2021/08/24 09:18:51;;;;;;;2.95;1.70;;;;;;;;;;5005580;28;20192;-55
2021/08/24 09:21:21;;;;;;;3.55;1.60;;;;;;;;;;5004405;28;20179;-54
2021/08/24 09:23:46;;;;;;;1.65;1.40;;;;;;;;;;5012703;28;20175;-55
2021/08/24 09:26:23;;;;;;;2.50;1.50;;;;;;;;;;4996368;28;20598;-56
2021/08/24 09:28:49;;;;;;;1.60;1.30;;;;;;;;;;4992159;28;20601;-55
2021/08/24 09:31:19;;;;;;;1.70;1.30;;;;;;;;;;5007452;28;20232;-55
2021/08/24 09:33:45;;;;;;;1.85;1.35;;;;;;;;;;5008139;28;20202;-55
2021/08/24 09:36:10;;;;;;;3.30;1.60;;;;;;;;;;5012385;28;20214;-55
2021/08/24 09:38:46;;;;;;;2.13;1.52;;;;;;;;;;4991512;28;20191;-53
2021/08/24 09:41:24;;;;;;;1.83;1.50;;;;;;;;;;4994980;28;20180;-53
2021/08/24 09:43:50;;;;;;;1.83;1.33;;;;;;;;;;4992143;28;20183;-53
2021/08/24 09:46:15;;;;;;;1.60;1.33;;;;;;;;;;5005721;28;20180;-55
2021/08/24 09:49:04;;;;;;;1.65;1.20;;;;;;;;;;4995895;28;20237;-55
2021/08/24 09:51:38;;;;;;;2.03;1.52;;;;;;;;;;5004480;28;20654;-54
2021/08/24 09:54:23;;;;;;;1.63;1.40;;;;;;;;;;4992332;28;20179;-53
2021/08/24 09:56:51;;;;;;;1.88;1.40;;;;;;;;;;4990925;28;20203;-53
2021/08/24 09:59:23;;;;;;;2.13;1.23;;;;;;;;;;4992731;28;20192;-53
2021/08/24 10:01:49;;;;;;;2.10;1.60;;;;;;;;;;5006252;28;20190;-52
2021/08/24 10:04:15;;;;;;;2.58;1.50;;;;;;;;;;4995377;28;20206;-53
2021/08/24 10:06:53;;;;;;;2.15;1.60;;;;;;;;;;5011239;28;20200;-54
2021/08/24 10:09:30;;;;;;;2.55;1.40;;;;;;;;;;5010050;28;20215;-53
2021/08/24 10:12:29;;;;;;;1.65;1.38;;;;;;;;;;5011022;28;20683;-52
2021/08/24 10:14:55;;;;;;;5.97;1.77;;;;;;;;;;5007739;28;20203;-53
2021/08/24 10:17:23;;;;;;;2.05;1.60;;;;;;;;;;5007693;28;20242;-54
2021/08/24 10:19:49;;;;;;;2.58;1.70;;;;;;;;;;5007074;28;20203;-55
2021/08/24 10:22:16;;;;;;;2.33;1.63;;;;;;;;;;4999939;28;20218;-53
2021/08/24 10:24:52;;;;;;;2.40;1.33;;;;;;;;;;4991046;28;20180;-54
2021/08/24 10:27:44;;;;;;;6.28;1.73;;;;;;;;;;4991472;28;20197;-53
2021/08/24 10:30:10;;;;;;;4.32;1.58;;;;;;;;;;4996426;28;20215;-53
2021/08/24 10:32:38;;;;;;;2.17;1.70;;;;;;;;;;4997450;28;20172;-53
2021/08/24 10:35:14;;;;;;;2.97;1.60;;;;;;;;;;4994883;28;20188;-55
2021/08/24 10:37:41;;;;;;;13.40;2.58;;;;;;;;;;4998952;28;20218;-53
2021/08/24 10:40:09;;;;;;;1.77;1.42;;;;;;;;;;5000461;28;20235;-53
2021/08/24 10:42:35;;;;;;;2.75;1.63;;;;;;;;;;5010895;28;20186;-54
2021/08/24 10:45:16;;;;;;;3.97;1.33;;;;;;;;;;5009957;28;20184;-55
2021/08/24 10:47:47;;;;;;;4.10;1.55;;;;;;;;;;5001842;28;20191;-55
2021/08/24 10:50:20;;;;;;;1.83;1.50;;;;;;;;;;5006914;28;20261;-55
2021/08/24 10:52:59;;;;;;;1.92;1.65;;;;;;;;;;5010739;28;20557;-54
2021/08/24 10:55:29;;;;;;;2.22;1.30;;;;;;;;;;5022968;28;20270;-54
2021/08/24 10:58:03;;;;;;;2.47;1.35;;;;;;;;;;5010537;28;20554;-54
2021/08/24 11:00:37;;;;;;;2.70;1.60;;;;;;;;;;5009545;28;20205;-54
2021/08/24 11:03:02;;;;;;;1.75;1.40;;;;;;;;;;5000994;28;20202;-55
2021/08/24 11:05:42;;;;;;;3.17;1.60;;;;;;;;;;5007837;28;20180;-55
2021/08/24 11:08:11;;;;;;;2.78;1.60;;;;;;;;;;5009388;28;20187;-55
2021/08/24 11:10:36;;;;;;;2.60;1.42;;;;;;;;;;5009756;28;20215;-55
2021/08/24 11:13:16;;;;;;;2.63;1.20;;;;;;;;;;5008706;28;20186;-53
2021/08/24 11:16:01;;;;;;;3.55;1.58;;;;;;;;;;5002958;28;20497;-56
2021/08/24 11:18:29;;;;;;;3.08;1.70;;;;;;;;;;5006331;28;20532;-54
2021/08/24 11:21:01;;;;;;;2.55;1.65;;;;;;;;;;5009006;28;20547;-56
2021/08/24 11:23:32;;;;;;;3.03;1.60;;;;;;;;;;4993017;28;20180;-54
2021/08/24 11:26:04;;;;;;;1.90;1.60;;;;;;;;;;5007463;28;20233;-56
2021/08/24 11:28:48;;;;;;;2.42;1.52;;;;;;;;;;5009725;28;20241;-56
2021/08/24 11:31:20;;;;;;;2.42;1.50;;;;;;;;;;5006462;28;20234;-55
2021/08/24 11:33:48;;;;;;;4.03;1.35;;;;;;;;;;5007562;28;20214;-56
2021/08/24 11:36:18;;;;;;;2.63;1.50;;;;;;;;;;5004865;28;20174;-55
2021/08/24 11:38:47;;;;;;;1.88;1.50;;;;;;;;;;5006963;28;20199;-53
2021/08/24 11:41:15;;;;;;;2.15;1.65;;;;;;;;;;5006903;28;20179;-55
2021/08/24 11:43:46;;;;;;;4.13;1.60;;;;;;;;;;5009374;28;20206;-55
2021/08/24 11:46:17;;;;;;;2.30;2.00;;;;;;;;;;5007485;28;20716;-56
2021/08/24 11:48:46;;;;;;;3.53;1.67;;;;;;;;;;5001147;28;20196;-54
2021/08/24 11:51:29;;;;;;;1.60;1.42;;;;;;;;;;4982785;28;20643;-55
2021/08/24 11:54:13;;;;;;;2.97;1.67;;;;;;;;;;5003811;28;20184;-55
2021/08/24 11:56:43;;;;;;;2.10;1.70;;;;;;;;;;5005885;28;20270;-55
2021/08/24 11:59:13;;;;;;;2.97;1.60;;;;;;;;;;5006695;28;20188;-57
2021/08/24 12:01:38;;;;;;;2.38;1.50;;;;;;;;;;5006096;28;20607;-54
2021/08/24 12:04:05;;;;;;;2.88;1.50;;;;;;;;;;4999697;28;20183;-54
2021/08/24 12:06:30;;;;;;;1.95;1.77;;;;;;;;;;5008819;28;20186;-54
2021/08/24 12:08:57;;;;;;;2.20;1.60;;;;;;;;;;5007021;28;20208;-52
2021/08/24 12:11:38;;;;;;;3.65;1.73;;;;;;;;;;5006151;28;20204;-53
2021/08/24 12:14:15;;;;;;;2.13;1.40;;;;;;;;;;5004699;28;20179;-53
2021/08/24 12:16:52;;;;;;;2.80;1.70;;;;;;;;;;4997383;28;20222;-55
2021/08/24 12:19:22;;;;;;;3.83;1.90;;;;;;;;;;5006608;28;20199;-53
2021/08/24 12:21:52;;;;;;;3.15;1.90;;;;;;;;;;5004858;28;20215;-55
2021/08/24 12:24:23;;;;;;;2.35;1.58;;;;;;;;;;4993781;28;20176;-54
2021/08/24 12:27:12;;;;;;;2.50;1.70;;;;;;;;;;4994183;28;20196;-55
2021/08/24 12:29:39;;;;;;;2.85;1.75;;;;;;;;;;5008102;28;20215;-54
2021/08/24 12:32:24;;;;;;;2.45;1.80;;;;;;;;;;5008589;28;20574;-53
2021/08/24 12:35:04;;;;;;;2.70;1.90;;;;;;;;;;5006276;28;20613;-54
2021/08/24 12:37:29;;;;;;;3.42;1.92;;;;;;;;;;5010435;28;20229;-52
2021/08/24 12:40:06;;;;;;;1.93;1.73;;;;;;;;;;5011683;28;20196;-54
2021/08/24 12:42:31;;;;;;;2.58;2.10;;;;;;;;;;5011515;28;20430;-55
2021/08/24 12:44:56;;;;;;;2.70;2.03;;;;;;;;;;5004825;28;20257;-54
2021/08/24 12:47:22;;;;;;;3.20;2.17;;;;;;;;;;5000196;28;20255;-54
2021/08/24 12:49:47;;;;;;;3.13;2.03;;;;;;;;;;5008943;28;20262;-55
2021/08/24 12:52:15;;;;;;;2.97;1.88;;;;;;;;;;5009114;28;20419;-53
2021/08/24 12:54:48;;;;;;;2.90;2.03;;;;;;;;;;4993495;28;20227;-53
2021/08/24 12:57:15;;;;;;;5.45;2.20;;;;;;;;;;4995023;28;20210;-53
2021/08/24 12:59:45;;;;;;;2.42;2.22;;;;;;;;;;5002845;28;20204;-54
2021/08/24 13:02:21;;;;;;;3.67;2.20;;;;;;;;;;4995036;28;20171;-55
2021/08/24 13:05:05;;;;;;;4.07;2.00;;;;;;;;;;5012604;28;20619;-55
2021/08/24 13:07:44;;;;;;;5.32;2.45;;;;;;;;;;5001222;28;20331;-55
2021/08/24 13:10:28;;;;;;;2.65;2.22;;;;;;;;;;5005480;28;20211;-54
2021/08/24 13:12:53;;;;;;;4.03;2.85;;;;;;;;;;5012711;28;20167;-54
2021/08/24 13:15:24;;;;;;;3.08;2.17;;;;;;;;;;5001305;28;20266;-54
2021/08/24 13:17:50;;;;;;;2.47;2.20;;;;;;;;;;5001287;28;20171;-54
2021/08/24 13:20:35;;;;;;;4.60;2.60;;;;;;;;;;4995923;28;20207;-55
2021/08/24 13:23:03;;;;;;;2.90;2.40;;;;;;;;;;5005509;28;20183;-54
2021/08/24 13:25:34;;;;;;;3.08;2.45;;;;;;;;;;4991506;28;20238;-54
2021/08/24 13:28:01;;;;;;;2.63;2.03;;;;;;;;;;4992254;28;20315;-54
2021/08/24 13:30:28;;;;;;;3.00;2.03;;;;;;;;;;5007643;28;20195;-54
2021/08/24 13:32:56;;;;;;;5.72;2.55;;;;;;;;;;5001501;28;20644;-55
2021/08/24 13:35:23;;;;;;;3.83;2.30;;;;;;;;;;4996342;28;20183;-55
2021/08/24 13:37:49;;;;;;;3.00;2.17;;;;;;;;;;5012492;28;20164;-53
2021/08/24 13:40:28;;;;;;;4.22;2.47;;;;;;;;;;5005076;28;20610;-54
2021/08/24 13:42:54;;;;;;;4.20;2.67;;;;;;;;;;5009112;28;20190;-54
2021/08/24 13:45:22;;;;;;;4.53;2.60;;;;;;;;;;5009184;28;20655;-54
2021/08/24 13:47:50;;;;;;;4.43;2.40;;;;;;;;;;5005220;28;20242;-54
2021/08/24 13:50:35;;;;;;;2.85;2.28;;;;;;;;;;5008992;28;20374;-54
2021/08/24 13:53:11;;;;;;;4.22;2.50;;;;;;;;;;5011372;28;20234;-55
2021/08/24 13:55:37;;;;;;;3.45;2.50;;;;;;;;;;5008850;28;20189;-56
2021/08/24 13:58:18;;;;;;;4.40;2.80;;;;;;;;;;5009646;28;20973;-54
2021/08/24 14:00:55;;;;;;;3.42;2.92;;;;;;;;;;5007961;28;20736;-53
2021/08/24 14:03:21;;;;;;;3.50;3.05;;;;;;;;;;4998526;28;20171;-55
2021/08/24 14:05:53;;;;;;;3.10;2.63;;;;;;;;;;5011430;28;20187;-55
2021/08/24 14:08:18;;;;;;;3.35;2.63;;;;;;;;;;5021991;28;20538;-55
2021/08/24 14:10:43;;;;;;;5.47;2.40;;;;;;;;;;4996946;28;20298;-54
2021/08/24 14:13:13;;;;;;;5.77;3.00;;;;;;;;;;4993868;28;20194;-54
2021/08/24 14:15:39;;;;;;;3.75;2.80;;;;;;;;;;5002795;28;20488;-55
2021/08/24 14:18:10;;;;;;;3.88;2.78;;;;;;;;;;5007647;28;20171;-54
2021/08/24 14:20:38;;;;;;;3.88;3.00;;;;;;;;;;4995695;28;20199;-55
2021/08/24 14:23:24;;;;;;;5.13;3.40;;;;;;;;;;4994776;28;20226;-55
2021/08/24 14:25:54;;;;;;;4.03;3.28;;;;;;;;;;5003534;28;20187;-56
2021/08/24 14:28:38;;;;;;;3.85;2.97;;;;;;;;;;5005885;28;20191;-55
2021/08/24 14:31:04;;;;;;;3.70;3.10;;;;;;;;;;5001086;28;20688;-54
2021/08/24 14:33:40;;;;;;;3.72;3.17;;;;;;;;;;4999553;28;20247;-55
2021/08/24 14:36:25;;;;;;;5.07;2.95;;;;;;;;;;5005158;28;20190;-55
2021/08/24 14:38:50;;;;;;;3.55;2.85;;;;;;;;;;4999181;28;20247;-54
2021/08/24 14:41:15;;;;;;;4.95;3.78;;;;;;;;;;5010180;28;20235;-57
2021/08/24 14:44:01;;;;;;;3.60;3.00;;;;;;;;;;5011406;28;20175;-54
2021/08/24 14:46:30;;;;;;;3.97;3.40;;;;;;;;;;5003300;28;20279;-55
2021/08/24 14:49:00;;;;;;;5.05;3.42;;;;;;;;;;4999419;28;20255;-55
2021/08/24 14:51:26;;;;;;;5.40;3.70;;;;;;;;;;4999863;28;20214;-55
2021/08/24 14:53:53;;;;;;;4.72;3.67;;;;;;;;;;5003213;28;20167;-56